Time;durP1;ratioP1;P1;durP2;ratioP2;P2;SDS_P1;SDS_P2;PMS_P1;PMS_P2;Temp;Humidity;BMP_temperature;BMP_pressure;BME280_temperature;BME280_humidity;BME280_pressure;Samples;Min_cycle;Max_cycle;Signal;HPM_P1;HPM_P2
2024/03/02 00:02:00;;;;;;;9.25;3.97;;;6.80;92.30;;;;;;5032852;28;20104;-65
2024/03/02 00:04:26;;;;;;;8.98;4.38;;;6.80;92.30;;;;;;5034741;28;20458;-65
2024/03/02 00:06:55;;;;;;;6.13;3.10;;;6.80;92.40;;;;;;5038545;28;20029;-64
2024/03/02 00:09:20;;;;;;;6.15;3.78;;;6.80;92.40;;;;;;5029399;28;20034;-65
2024/03/02 00:11:46;;;;;;;7.18;4.00;;;6.80;92.40;;;;;;5027442;28;20037;-64
2024/03/02 00:14:12;;;;;;;10.15;4.35;;;6.80;92.40;;;;;;5027449;28;20033;-64
2024/03/02 00:16:37;;;;;;;4.80;2.88;;;6.80;92.40;;;;;;5031074;28;20445;-64
2024/03/02 00:19:05;;;;;;;6.53;3.40;;;6.80;92.50;;;;;;5041050;28;20400;-65
2024/03/02 00:21:31;;;;;;;7.90;4.05;;;6.80;92.50;;;;;;5038491;28;20021;-65
2024/03/02 00:23:57;;;;;;;8.15;3.72;;;6.80;92.40;;;;;;5034369;28;20099;-64
2024/03/02 00:26:22;;;;;;;6.78;3.92;;;6.80;92.40;;;;;;5029706;28;20112;-64
2024/03/02 00:28:50;;;;;;;7.07;3.83;;;6.80;92.40;;;;;;5036420;28;20032;-65
2024/03/02 00:31:19;;;;;;;11.52;4.68;;;6.80;92.50;;;;;;5032056;28;20039;-65
2024/03/02 00:33:46;;;;;;;7.10;3.92;;;6.80;92.50;;;;;;5034886;28;20068;-65
2024/03/02 00:36:21;;;;;;;7.97;3.85;;;6.80;92.40;;;;;;5035736;28;20083;-64
2024/03/02 00:38:48;;;;;;;7.70;4.47;;;6.90;92.30;;;;;;5040072;28;20047;-65
2024/03/02 00:41:23;;;;;;;7.13;3.72;;;6.90;92.40;;;;;;5034592;28;20120;-64
2024/03/02 00:44:03;;;;;;;9.30;4.55;;;6.80;92.30;;;;;;5032071;28;20049;-65
2024/03/02 00:46:36;;;;;;;6.72;3.72;;;6.80;92.30;;;;;;5034898;28;20057;-65
2024/03/02 00:49:26;;;;;;;8.00;3.92;;;6.80;92.40;;;;;;5032682;28;20660;-65
2024/03/02 00:51:53;;;;;;;8.15;4.10;;;6.80;92.40;;;;;;5031924;28;20030;-65
2024/03/02 00:54:21;;;;;;;7.03;3.58;;;6.80;92.40;;;;;;5033770;28;20342;-65
2024/03/02 00:56:47;;;;;;;7.53;3.63;;;6.80;92.50;;;;;;5036219;28;20042;-65
2024/03/02 00:59:13;;;;;;;8.90;4.45;;;6.70;92.60;;;;;;5034716;28;20114;-65
2024/03/02 01:01:38;;;;;;;9.63;4.20;;;6.70;92.60;;;;;;5035300;28;20045;-64
2024/03/02 01:04:05;;;;;;;8.30;4.18;;;6.80;92.70;;;;;;5042543;28;20039;-64
2024/03/02 01:06:30;;;;;;;7.90;4.20;;;6.80;92.70;;;;;;5042507;28;20049;-65
2024/03/02 01:08:56;;;;;;;9.27;4.13;;;6.80;92.60;;;;;;5040409;28;20454;-65
2024/03/02 01:11:21;;;;;;;10.68;4.40;;;6.80;92.50;;;;;;5036877;28;20109;-65
2024/03/02 01:13:47;;;;;;;8.07;4.15;;;6.90;92.40;;;;;;5031878;28;20437;-65
2024/03/02 01:16:13;;;;;;;8.40;4.50;;;6.90;92.10;;;;;;5037549;28;20100;-66
2024/03/02 01:18:39;;;;;;;10.50;4.32;;;6.90;92.20;;;;;;5036274;28;20101;-65
2024/03/02 01:21:04;;;;;;;7.65;3.83;;;6.90;92.10;;;;;;5035740;28;20033;-64
2024/03/02 01:23:30;;;;;;;7.03;4.07;;;7.00;92.00;;;;;;5034154;28;20390;-65
2024/03/02 01:25:55;;;;;;;10.00;4.28;;;7.00;91.90;;;;;;5033485;28;20087;-65
2024/03/02 01:28:21;;;;;;;8.35;3.80;;;7.00;91.60;;;;;;5033779;28;20025;-65
2024/03/02 01:30:47;;;;;;;9.65;4.32;;;7.00;91.80;;;;;;5042663;28;20026;-64
2024/03/02 01:33:12;;;;;;;8.57;4.40;;;7.00;91.70;;;;;;5035418;28;20025;-64
2024/03/02 01:35:38;;;;;;;8.60;4.18;;;7.00;91.70;;;;;;5038964;28;20033;-65
2024/03/02 01:38:05;;;;;;;8.30;4.68;;;7.00;91.60;;;;;;5029719;28;20025;-66
2024/03/02 01:40:32;;;;;;;9.75;4.47;;;7.00;91.70;;;;;;5041876;28;20211;-65
2024/03/02 01:43:00;;;;;;;8.95;4.82;;;7.00;91.80;;;;;;5036141;28;20049;-64
2024/03/02 01:45:26;;;;;;;8.63;4.32;;;7.00;91.80;;;;;;5041432;28;20029;-65
2024/03/02 01:47:52;;;;;;;7.95;4.22;;;7.00;91.60;;;;;;5040945;28;20047;-65
2024/03/02 01:50:28;;;;;;;9.43;4.15;;;7.00;91.60;;;;;;5041022;28;20140;-65
2024/03/02 01:52:55;;;;;;;9.57;4.60;;;6.90;91.70;;;;;;5038107;28;20162;-64
2024/03/02 01:55:21;;;;;;;9.00;3.90;;;6.90;91.60;;;;;;5028702;28;20438;-64
2024/03/02 01:57:47;;;;;;;7.93;4.25;;;6.90;91.60;;;;;;5043601;28;20151;-64
2024/03/02 02:00:13;;;;;;;8.02;4.25;;;6.90;91.70;;;;;;5043398;28;20033;-65
2024/03/02 02:02:39;;;;;;;6.78;3.67;;;6.90;91.60;;;;;;5038422;28;20492;-65
2024/03/02 02:05:05;;;;;;;9.43;4.53;;;6.90;91.60;;;;;;5044768;28;20037;-65
2024/03/02 02:07:31;;;;;;;9.38;3.78;;;6.90;91.80;;;;;;5041032;28;20077;-66
2024/03/02 02:09:57;;;;;;;9.60;4.03;;;6.90;91.80;;;;;;5036863;28;20052;-66
2024/03/02 02:12:22;;;;;;;7.65;4.18;;;6.90;91.80;;;;;;5038770;28;20028;-64
2024/03/02 02:14:50;;;;;;;9.85;4.15;;;6.90;91.80;;;;;;5038116;28;20056;-65
2024/03/02 02:17:15;;;;;;;6.70;3.80;;;6.80;91.80;;;;;;5037576;28;20384;-64
2024/03/02 02:19:42;;;;;;;8.85;3.55;;;6.80;91.80;;;;;;5038816;28;20048;-65
2024/03/02 02:22:08;;;;;;;7.82;4.50;;;6.80;92.00;;;;;;5039610;28;20028;-64
2024/03/02 02:24:33;;;;;;;7.47;3.88;;;6.80;91.90;;;;;;5037044;28;20445;-64
2024/03/02 02:26:59;;;;;;;7.80;3.70;;;6.80;92.00;;;;;;5029757;28;20055;-65
2024/03/02 02:29:24;;;;;;;8.98;4.47;;;6.80;92.00;;;;;;5036897;28;20052;-65
2024/03/02 02:31:50;;;;;;;7.25;3.83;;;6.80;91.90;;;;;;5036808;28;20037;-65
2024/03/02 02:34:16;;;;;;;8.00;4.38;;;6.80;91.90;;;;;;5037070;28;20059;-65
2024/03/02 02:36:41;;;;;;;7.43;3.90;;;6.80;92.00;;;;;;5037198;28;20094;-64
2024/03/02 02:39:10;;;;;;;8.38;4.45;;;6.70;92.10;;;;;;5030554;28;20439;-65
2024/03/02 02:41:36;;;;;;;8.07;4.13;;;6.70;92.10;;;;;;5033739;28;20084;-64
2024/03/02 02:44:02;;;;;;;7.28;3.55;;;6.70;92.20;;;;;;5033939;28;20435;-65
2024/03/02 02:46:27;;;;;;;7.22;3.88;;;6.70;92.20;;;;;;5038711;28;20419;-64
2024/03/02 02:48:53;;;;;;;8.63;4.63;;;6.70;92.30;;;;;;5035531;28;20548;-65
2024/03/02 02:51:19;;;;;;;7.93;4.13;;;6.70;92.40;;;;;;5042685;28;20045;-65
2024/03/02 02:53:44;;;;;;;9.93;4.70;;;6.60;92.60;;;;;;5028301;28;20100;-65
2024/03/02 02:56:10;;;;;;;7.00;3.72;;;6.60;92.50;;;;;;5044187;28;20059;-64
2024/03/02 02:58:35;;;;;;;7.95;4.15;;;6.70;92.50;;;;;;5038196;28;20044;-66
2024/03/02 03:01:01;;;;;;;7.00;3.95;;;6.70;92.50;;;;;;5033245;28;20037;-65
2024/03/02 03:03:27;;;;;;;9.00;4.72;;;6.60;92.60;;;;;;5033674;28;20048;-65
2024/03/02 03:05:52;;;;;;;6.57;3.58;;;6.60;92.50;;;;;;5037629;28;20055;-64
2024/03/02 03:08:18;;;;;;;10.10;4.65;;;6.60;92.50;;;;;;5033825;28;20556;-66
2024/03/02 03:10:44;;;;;;;7.43;3.70;;;6.60;92.60;;;;;;5036572;28;20036;-65
2024/03/02 03:13:10;;;;;;;10.93;4.53;;;6.70;92.50;;;;;;5034866;28;20060;-64
2024/03/02 03:15:38;;;;;;;9.80;4.93;;;6.60;92.40;;;;;;5037872;28;20037;-64
2024/03/02 03:18:04;;;;;;;9.23;4.05;;;6.60;92.60;;;;;;5033252;28;20350;-65
2024/03/02 03:20:30;;;;;;;6.70;3.75;;;6.60;92.50;;;;;;5040304;28;20116;-65
2024/03/02 03:22:56;;;;;;;8.90;4.40;;;6.70;92.40;;;;;;5034129;28;20131;-66
2024/03/02 03:25:22;;;;;;;9.65;4.57;;;6.70;92.40;;;;;;5035806;28;20549;-64
2024/03/02 03:27:48;;;;;;;8.77;4.85;;;6.70;92.50;;;;;;5033632;28;20166;-66
2024/03/02 03:30:14;;;;;;;9.43;4.75;;;6.60;92.40;;;;;;5036653;28;20028;-65
2024/03/02 03:32:40;;;;;;;8.95;4.85;;;6.60;92.50;;;;;;5035634;28;20083;-64
2024/03/02 03:35:06;;;;;;;8.18;4.85;;;6.60;92.40;;;;;;5036742;28;20033;-64
2024/03/02 03:37:32;;;;;;;7.38;3.97;;;6.60;92.50;;;;;;5030639;28;20924;-65
2024/03/02 03:40:01;;;;;;;8.20;4.22;;;6.60;92.60;;;;;;5034921;28;20103;-64
2024/03/02 03:42:27;;;;;;;8.57;4.35;;;6.60;92.70;;;;;;5034657;28;20455;-66
2024/03/02 03:44:52;;;;;;;8.70;4.28;;;6.60;92.50;;;;;;5038043;28;20052;-65
2024/03/02 03:47:18;;;;;;;8.88;3.97;;;6.60;92.50;;;;;;5031413;28;20178;-66
2024/03/02 03:49:44;;;;;;;10.63;4.65;;;6.60;92.70;;;;;;5034579;28;20030;-65
2024/03/02 03:52:09;;;;;;;8.15;4.43;;;6.60;92.90;;;;;;5032192;28;20105;-65
2024/03/02 03:54:37;;;;;;;9.07;4.82;;;6.60;92.80;;;;;;5035656;28;20052;-65
2024/03/02 03:57:02;;;;;;;8.23;4.55;;;6.60;92.90;;;;;;5034418;28;20028;-64
2024/03/02 03:59:28;;;;;;;8.20;4.65;;;6.60;92.90;;;;;;5031769;28;20404;-65
2024/03/02 04:01:53;;;;;;;8.20;4.40;;;6.60;92.90;;;;;;5035413;28;20041;-65
2024/03/02 04:04:19;;;;;;;9.45;4.40;;;6.60;92.90;;;;;;5039135;28;20080;-65
2024/03/02 04:06:44;;;;;;;9.43;3.97;;;6.60;93.10;;;;;;5035156;28;20092;-64
2024/03/02 04:09:09;;;;;;;10.07;5.05;;;6.60;93.00;;;;;;5036467;28;20056;-65
2024/03/02 04:11:35;;;;;;;11.43;5.43;;;6.60;93.10;;;;;;5038184;28;20029;-65
2024/03/02 04:14:00;;;;;;;8.60;4.55;;;6.60;93.00;;;;;;5037333;28;20039;-65
2024/03/02 04:16:26;;;;;;;8.05;4.25;;;6.60;93.10;;;;;;5035439;28;20093;-64
2024/03/02 04:18:51;;;;;;;10.57;5.13;;;6.60;93.20;;;;;;5036100;28;20061;-64
2024/03/02 04:21:17;;;;;;;9.02;5.13;;;6.50;93.30;;;;;;5033419;28;20457;-65
2024/03/02 04:23:42;;;;;;;9.63;4.80;;;6.60;93.40;;;;;;5034662;28;20091;-65
2024/03/02 04:26:08;;;;;;;9.85;5.72;;;6.50;93.40;;;;;;5038715;28;20033;-65
2024/03/02 04:28:33;;;;;;;9.10;4.80;;;6.50;93.60;;;;;;5038802;28;20441;-65
2024/03/02 04:30:59;;;;;;;10.50;5.10;;;6.40;93.60;;;;;;5039628;28;20037;-65
2024/03/02 04:33:24;;;;;;;8.90;4.85;;;6.40;93.80;;;;;;5033564;28;20066;-64
2024/03/02 04:35:50;;;;;;;10.75;4.97;;;6.30;93.80;;;;;;5031983;28;20188;-65
2024/03/02 04:38:15;;;;;;;8.90;4.70;;;6.30;93.80;;;;;;5037010;28;20116;-66
2024/03/02 04:40:41;;;;;;;10.57;5.30;;;6.30;93.90;;;;;;5035701;28;20052;-65
2024/03/02 04:43:09;;;;;;;13.60;5.45;;;6.30;94.00;;;;;;5033921;28;20049;-65
2024/03/02 04:45:34;;;;;;;10.65;5.68;;;6.30;93.90;;;;;;5037758;28;20126;-64
2024/03/02 04:47:59;;;;;;;10.75;5.70;;;6.20;94.00;;;;;;5034189;28;20112;-64
2024/03/02 04:50:25;;;;;;;11.52;5.38;;;6.20;94.00;;;;;;5038341;28;20045;-66
2024/03/02 04:52:50;;;;;;;8.10;4.95;;;6.10;94.10;;;;;;5030014;28;20029;-64
2024/03/02 04:57:41;;;;;;;10.48;5.03;;;6.00;94.40;;;;;;5034617;28;20094;-65
2024/03/02 05:00:08;;;;;;;12.35;5.32;;;6.00;94.40;;;;;;5036879;28;20456;-64
2024/03/02 05:02:34;;;;;;;9.07;4.50;;;6.00;94.60;;;;;;5037421;28;20021;-65
2024/03/02 05:04:59;;;;;;;9.55;5.18;;;6.10;94.60;;;;;;5040045;28;20056;-65
2024/03/02 05:07:25;;;;;;;9.60;5.82;;;6.00;94.50;;;;;;5038137;28;20048;-66
2024/03/02 05:09:50;;;;;;;8.68;4.75;;;6.00;94.50;;;;;;5039952;28;20033;-65
2024/03/02 05:15:00;;;;;;;9.93;5.28;;;6.00;94.60;;;;;;5031363;28;20040;-65
2024/03/02 05:17:26;;;;;;;12.05;6.05;;;5.90;94.60;;;;;;5037569;28;20030;-65
2024/03/02 05:19:51;;;;;;;10.25;5.45;;;5.90;94.70;;;;;;5031553;28;20056;-65
2024/03/02 05:22:16;;;;;;;12.68;5.90;;;5.80;94.60;;;;;;5033345;28;20048;-65
2024/03/02 05:24:42;;;;;;;9.35;5.05;;;5.80;95.10;;;;;;5028802;28;20481;-65
2024/03/02 05:27:07;;;;;;;8.93;5.05;;;5.70;94.90;;;;;;5034241;28;20041;-64
2024/03/02 05:29:33;;;;;;;12.05;6.07;;;5.60;95.10;;;;;;5032748;28;20070;-63
2024/03/02 05:31:58;;;;;;;9.82;5.47;;;5.60;95.30;;;;;;5031202;28;20426;-63
2024/03/02 05:34:24;;;;;;;11.07;5.20;;;5.60;95.20;;;;;;5030361;28;20411;-62
2024/03/02 05:36:49;;;;;;;13.65;6.43;;;5.60;95.30;;;;;;5037033;28;20055;-63
2024/03/02 05:39:15;;;;;;;10.80;5.13;;;5.40;95.30;;;;;;5030315;28;20057;-62
2024/03/02 05:41:41;;;;;;;12.32;6.30;;;5.40;95.50;;;;;;5034300;28;20196;-63
2024/03/02 05:44:06;;;;;;;13.30;5.15;;;5.30;95.80;;;;;;5028892;28;20038;-62
2024/03/02 05:46:32;;;;;;;10.48;5.90;;;5.30;95.80;;;;;;5036207;28;20049;-63
2024/03/02 05:48:59;;;;;;;10.82;5.50;;;5.30;95.90;;;;;;5036728;28;20466;-62
2024/03/02 05:51:24;;;;;;;11.57;5.70;;;5.20;96.00;;;;;;5035079;28;20461;-62
2024/03/02 05:53:50;;;;;;;12.65;6.10;;;5.10;96.00;;;;;;5035768;28;20044;-63
2024/03/02 05:56:15;;;;;;;12.18;5.57;;;5.10;96.20;;;;;;5038793;28;20321;-63
2024/03/02 06:01:09;;;;;;;12.55;5.97;;;5.30;96.40;;;;;;5040315;28;20044;-63
2024/03/02 06:03:34;;;;;;;12.10;5.10;;;5.30;96.10;;;;;;5040412;28;20025;-62
2024/03/02 06:06:00;;;;;;;10.25;5.28;;;5.30;96.00;;;;;;5034277;28;20112;-65
2024/03/02 06:08:25;;;;;;;10.18;5.15;;;5.30;95.90;;;;;;5041015;28;20040;-63
2024/03/02 06:10:51;;;;;;;9.88;5.53;;;5.20;95.90;;;;;;5040763;28;20033;-63
2024/03/02 06:13:16;;;;;;;11.48;5.60;;;5.20;96.00;;;;;;5037819;28;20450;-62
2024/03/02 06:15:42;;;;;;;13.23;6.32;;;5.20;96.00;;;;;;5035673;28;20200;-62
2024/03/02 06:18:08;;;;;;;12.88;6.75;;;5.30;96.10;;;;;;5033351;28;20449;-62
2024/03/02 06:20:33;;;;;;;11.85;4.97;;;5.40;96.10;;;;;;5041721;28;20037;-63
2024/03/02 06:22:59;;;;;;;11.85;5.55;;;5.40;95.70;;;;;;5037116;28;20077;-63
2024/03/02 06:25:24;;;;;;;10.77;4.75;;;5.30;95.60;;;;;;5034835;28;20049;-63
2024/03/02 06:27:50;;;;;;;12.00;5.25;;;5.30;95.70;;;;;;5040281;28;20028;-64
2024/03/02 06:30:15;;;;;;;11.70;5.10;;;5.50;95.80;;;;;;5029728;28;20098;-62
2024/03/02 06:32:41;;;;;;;10.23;5.90;;;5.60;95.50;;;;;;5028914;28;20030;-63
2024/03/02 06:35:09;;;;;;;11.05;5.90;;;5.50;95.30;;;;;;5035896;28;20056;-62
2024/03/02 06:37:36;;;;;;;12.15;4.88;;;5.50;95.30;;;;;;5041246;28;20028;-63
2024/03/02 06:40:02;;;;;;;10.82;5.78;;;5.60;95.20;;;;;;5035254;28;20579;-64
2024/03/02 06:42:32;;;;;;;8.57;4.88;;;5.60;95.20;;;;;;5034175;28;20465;-63
2024/03/02 06:44:58;;;;;;;14.68;5.95;;;5.60;95.10;;;;;;5038856;28;20040;-63
2024/03/02 06:47:24;;;;;;;10.68;5.90;;;5.60;95.20;;;;;;5032502;28;20505;-62
2024/03/02 06:49:49;;;;;;;10.60;5.35;;;5.60;95.10;;;;;;5030185;28;20083;-63
2024/03/02 06:52:15;;;;;;;9.50;5.03;;;5.60;95.10;;;;;;5033228;28;20068;-63
2024/03/02 06:54:40;;;;;;;10.48;4.85;;;5.50;95.10;;;;;;5029681;28;20484;-63
2024/03/02 06:57:05;;;;;;;11.93;5.20;;;5.60;95.30;;;;;;5032118;28;20041;-63
2024/03/02 06:59:31;;;;;;;11.70;5.32;;;5.60;95.10;;;;;;5030121;28;20184;-63
2024/03/02 07:01:56;;;;;;;10.88;5.30;;;5.60;95.10;;;;;;5037862;28;20037;-65
2024/03/02 07:04:22;;;;;;;12.65;5.32;;;5.60;95.00;;;;;;5033759;28;20167;-63
2024/03/02 07:06:47;;;;;;;14.80;5.93;;;5.70;94.90;;;;;;5032832;28;20038;-63
2024/03/02 07:09:13;;;;;;;10.20;5.88;;;5.80;94.70;;;;;;5034264;28;20076;-62
2024/03/02 07:11:38;;;;;;;10.07;5.28;;;5.90;94.50;;;;;;5039238;28;20036;-63
2024/03/02 07:14:04;;;;;;;11.18;5.47;;;5.90;94.30;;;;;;5032316;28;20068;-63
2024/03/02 07:16:34;;;;;;;14.88;6.20;;;6.00;94.20;;;;;;5028069;28;20060;-64
2024/03/02 07:19:01;;;;;;;9.38;5.18;;;6.10;93.90;;;;;;5036870;28;20028;-63
2024/03/02 07:21:27;;;;;;;12.57;6.22;;;6.20;93.50;;;;;;5036209;28;20041;-63
2024/03/02 07:23:52;;;;;;;9.98;5.53;;;6.20;93.10;;;;;;5031928;28;20056;-62
2024/03/02 07:26:18;;;;;;;10.95;5.22;;;6.30;93.20;;;;;;5038671;28;20033;-62
2024/03/02 07:28:46;;;;;;;13.00;5.70;;;6.40;93.10;;;;;;5034425;28;20123;-62
2024/03/02 07:31:11;;;;;;;11.70;5.53;;;6.50;92.90;;;;;;5037267;28;20111;-63
2024/03/02 07:33:37;;;;;;;12.48;5.43;;;6.60;92.50;;;;;;5035286;28;20065;-60
2024/03/02 07:36:03;;;;;;;10.30;5.68;;;6.60;92.40;;;;;;5030714;28;20347;-62
2024/03/02 07:38:29;;;;;;;9.00;4.88;;;6.70;92.30;;;;;;5028947;28;20028;-62
2024/03/02 07:40:55;;;;;;;10.55;5.13;;;6.80;91.90;;;;;;5037117;28;20034;-62
2024/03/02 07:43:21;;;;;;;11.73;4.82;;;6.80;91.30;;;;;;5036682;28;20350;-62
2024/03/02 07:45:47;;;;;;;13.50;5.63;;;7.00;91.60;;;;;;5040756;28;20041;-63
2024/03/02 07:48:13;;;;;;;10.88;5.07;;;7.10;91.70;;;;;;5040513;28;20116;-63
2024/03/02 07:50:39;;;;;;;8.40;4.32;;;7.20;91.20;;;;;;5036965;28;20138;-64
2024/03/02 07:53:05;;;;;;;9.43;4.95;;;7.30;91.10;;;;;;5033633;28;20394;-63
2024/03/02 07:55:31;;;;;;;11.95;4.78;;;7.40;90.90;;;;;;5034803;28;20318;-63
2024/03/02 07:57:57;;;;;;;11.18;6.10;;;7.50;90.40;;;;;;5038760;28;20031;-64
2024/03/02 08:00:23;;;;;;;11.05;5.18;;;7.60;90.00;;;;;;5032654;28;20067;-63
2024/03/02 08:02:52;;;;;;;11.00;4.85;;;7.60;89.80;;;;;;5039627;28;20486;-63
2024/03/02 08:05:21;;;;;;;9.95;4.75;;;7.60;89.50;;;;;;5036945;28;20045;-63
2024/03/02 08:07:47;;;;;;;10.25;5.72;;;7.70;89.40;;;;;;5032340;28;20029;-64
2024/03/02 08:10:13;;;;;;;10.05;4.70;;;7.70;88.90;;;;;;5037206;28;20135;-64
2024/03/02 08:12:39;;;;;;;8.73;4.80;;;7.80;89.30;;;;;;5033503;28;20103;-64
2024/03/02 08:15:05;;;;;;;10.68;5.20;;;7.80;89.30;;;;;;5038417;28;20125;-64
2024/03/02 08:17:31;;;;;;;10.40;5.50;;;7.90;89.30;;;;;;5029984;28;20465;-63
2024/03/02 08:19:57;;;;;;;10.60;5.78;;;8.00;89.00;;;;;;5034478;28;20147;-64
2024/03/02 08:22:25;;;;;;;12.18;5.90;;;8.10;88.30;;;;;;5029109;28;20057;-64
2024/03/02 08:24:51;;;;;;;10.95;5.57;;;8.10;88.20;;;;;;5032062;28;20430;-64
2024/03/02 08:27:16;;;;;;;9.68;5.57;;;8.10;87.70;;;;;;5029576;28;20029;-64
2024/03/02 08:29:42;;;;;;;8.75;4.60;;;8.30;88.10;;;;;;5037313;28;20042;-64
2024/03/02 08:32:07;;;;;;;9.25;4.63;;;8.30;87.70;;;;;;5031279;28;20033;-65
2024/03/02 08:34:35;;;;;;;9.60;5.30;;;8.20;87.50;;;;;;5031549;28;20085;-64
2024/03/02 08:37:01;;;;;;;11.93;6.15;;;8.30;87.30;;;;;;5033437;28;20153;-65
2024/03/02 08:39:27;;;;;;;8.55;4.72;;;8.30;87.20;;;;;;5041425;28;20135;-63
2024/03/02 08:41:53;;;;;;;10.70;5.22;;;8.30;87.30;;;;;;5027479;28;20537;-64
2024/03/02 08:44:18;;;;;;;9.80;5.28;;;8.30;87.10;;;;;;5029884;28;20469;-65
2024/03/02 08:46:44;;;;;;;9.43;4.75;;;8.40;87.20;;;;;;5031184;28;20115;-64
2024/03/02 08:49:10;;;;;;;11.38;5.35;;;8.50;86.80;;;;;;5030719;28;20117;-65
2024/03/02 08:51:35;;;;;;;11.90;5.80;;;8.60;86.20;;;;;;5030798;28;20430;-65
2024/03/02 08:54:00;;;;;;;11.55;5.68;;;8.60;85.90;;;;;;5031407;28;20034;-64
2024/03/02 08:56:26;;;;;;;11.10;5.90;;;8.80;85.60;;;;;;5028374;28;20029;-63
2024/03/02 08:58:52;;;;;;;11.27;5.18;;;9.10;85.50;;;;;;5026155;28;20037;-64
2024/03/02 09:01:19;;;;;;;7.97;4.30;;;9.10;84.50;;;;;;5031890;28;20117;-64
2024/03/02 09:03:45;;;;;;;10.27;4.60;;;9.40;84.30;;;;;;5031819;28;20454;-63
2024/03/02 09:06:11;;;;;;;9.00;4.63;;;9.30;84.00;;;;;;5037493;28;20111;-63
2024/03/02 09:08:36;;;;;;;9.75;4.68;;;9.60;84.40;;;;;;5031951;28;20033;-63
2024/03/02 09:11:06;;;;;;;10.15;5.32;;;9.60;82.50;;;;;;5032543;28;20036;-64
2024/03/02 09:13:32;;;;;;;9.38;4.75;;;9.30;83.00;;;;;;5029186;28;20428;-63
2024/03/02 09:15:57;;;;;;;10.63;5.32;;;9.50;83.30;;;;;;5033612;28;20040;-63
2024/03/02 09:18:23;;;;;;;8.80;4.70;;;9.50;82.50;;;;;;5035330;28;20036;-63
2024/03/02 09:20:48;;;;;;;8.30;4.45;;;9.70;82.50;;;;;;5027506;28;21602;-63
2024/03/02 09:23:14;;;;;;;9.38;5.13;;;9.90;83.30;;;;;;5030735;28;20029;-63
2024/03/02 09:25:39;;;;;;;9.60;4.50;;;10.10;81.50;;;;;;5040067;28;20032;-63
2024/03/02 09:28:05;;;;;;;9.52;4.47;;;10.20;81.90;;;;;;5039067;28;20175;-65
2024/03/02 09:30:31;;;;;;;10.10;4.75;;;10.40;80.70;;;;;;5037751;28;20394;-63
2024/03/02 09:32:56;;;;;;;9.93;4.70;;;10.40;80.70;;;;;;5037373;28;20037;-63
2024/03/02 09:35:22;;;;;;;9.55;4.82;;;10.20;80.00;;;;;;5039050;28;20136;-63
2024/03/02 09:37:47;;;;;;;8.75;4.55;;;10.30;80.80;;;;;;5035444;28;20025;-63
2024/03/02 09:40:13;;;;;;;10.50;4.60;;;10.30;80.40;;;;;;5037285;28;20035;-64
2024/03/02 09:42:40;;;;;;;8.88;4.60;;;10.30;80.00;;;;;;5036970;28;20098;-64
2024/03/02 09:45:07;;;;;;;8.90;4.63;;;10.30;81.00;;;;;;5036518;28;20029;-63
2024/03/02 09:47:32;;;;;;;9.93;4.90;;;10.60;80.40;;;;;;5035914;28;20169;-63
2024/03/02 09:49:58;;;;;;;8.05;4.35;;;10.80;80.40;;;;;;5046883;28;20844;-64
2024/03/02 09:52:24;;;;;;;7.90;3.53;;;10.70;79.20;;;;;;5041842;28;20037;-63
2024/03/02 09:54:49;;;;;;;7.45;3.88;;;10.50;79.70;;;;;;5040076;28;20033;-63
2024/03/02 09:57:15;;;;;;;9.30;3.97;;;10.60;80.30;;;;;;5039655;28;20107;-63
2024/03/02 09:59:40;;;;;;;8.20;4.25;;;10.80;79.60;;;;;;5038203;28;20382;-64
2024/03/02 10:02:07;;;;;;;7.93;4.00;;;11.00;79.40;;;;;;5035975;28;20040;-63
2024/03/02 10:04:33;;;;;;;8.55;4.22;;;10.90;78.20;;;;;;5032897;28;20030;-63
2024/03/02 10:07:16;;;;;;;8.00;4.30;;;10.70;78.50;;;;;;5032003;28;20033;-64
2024/03/02 10:09:44;;;;;;;8.20;3.80;;;10.60;78.70;;;;;;5038740;28;20041;-63
2024/03/02 10:12:11;;;;;;;8.77;4.18;;;10.70;79.20;;;;;;5034093;28;20095;-63
2024/03/02 10:14:37;;;;;;;8.05;3.70;;;10.70;78.50;;;;;;5040038;28;20041;-63
2024/03/02 10:17:13;;;;;;;9.55;3.90;;;10.90;79.00;;;;;;5039477;28;20037;-63
2024/03/02 10:19:39;;;;;;;7.22;4.18;;;11.00;78.50;;;;;;5044519;28;20056;-64
2024/03/02 10:22:07;;;;;;;8.45;3.55;;;10.80;78.30;;;;;;5034161;28;20149;-65
2024/03/02 10:24:45;;;;;;;7.57;3.65;;;11.00;78.50;;;;;;5034880;28;20104;-63
2024/03/02 10:27:18;;;;;;;7.88;3.92;;;11.00;78.40;;;;;;5031030;28;20038;-63
2024/03/02 10:29:47;;;;;;;8.73;4.13;;;11.10;78.20;;;;;;5045040;28;20117;-64
2024/03/02 10:32:13;;;;;;;7.60;3.45;;;11.00;77.80;;;;;;5038206;28;20112;-64
2024/03/02 10:34:43;;;;;;;7.47;3.63;;;11.00;78.20;;;;;;5037771;28;20478;-64
2024/03/02 10:37:11;;;;;;;6.78;3.28;;;11.00;78.70;;;;;;5037429;28;20025;-64
2024/03/02 10:39:39;;;;;;;7.82;3.92;;;11.10;78.00;;;;;;5038806;28;20033;-63
2024/03/02 10:42:06;;;;;;;9.73;4.18;;;11.10;77.90;;;;;;5030712;28;20046;-64
2024/03/02 10:44:32;;;;;;;7.07;3.50;;;11.20;78.30;;;;;;5038013;28;20158;-64
2024/03/02 10:47:03;;;;;;;7.00;3.40;;;11.20;77.10;;;;;;5034428;28;20098;-64
2024/03/02 10:49:30;;;;;;;;;;;11.40;77.90;;;;;;5034428;28;20105;-64
2024/03/02 10:51:56;;;;;;;6.78;3.20;;;11.40;77.80;;;;;;5037840;28;19932;-63
2024/03/02 10:54:26;;;;;;;7.70;3.53;;;11.30;76.70;;;;;;5031277;28;20029;-63
2024/03/02 10:56:54;;;;;;;8.60;3.63;;;11.30;77.30;;;;;;5037372;28;20368;-63
2024/03/02 10:59:29;;;;;;;8.48;3.67;;;11.10;76.50;;;;;;5038249;28;20033;-62
2024/03/02 11:01:58;;;;;;;6.75;3.42;;;11.10;77.60;;;;;;5037732;28;20026;-62
2024/03/02 11:04:25;;;;;;;8.45;3.97;;;11.20;77.20;;;;;;5033196;28;20059;-62
2024/03/02 11:06:52;;;;;;;8.75;3.72;;;11.30;77.10;;;;;;5032617;28;20394;-65
2024/03/02 11:09:25;;;;;;;6.80;3.50;;;11.10;76.00;;;;;;5038931;28;20054;-64
2024/03/02 11:12:01;;;;;;;7.22;3.65;;;11.20;77.50;;;;;;5033453;28;20029;-65
2024/03/02 11:14:31;;;;;;;7.18;3.50;;;11.10;77.00;;;;;;5042359;28;20025;-64
2024/03/02 11:16:57;;;;;;;5.67;2.70;;;11.50;76.90;;;;;;5042686;28;20409;-65
2024/03/02 11:19:24;;;;;;;7.47;3.45;;;11.70;76.50;;;;;;5037579;28;20462;-64
2024/03/02 11:21:50;;;;;;;6.47;3.03;;;11.80;76.00;;;;;;5034336;28;20029;-65
2024/03/02 11:24:25;;;;;;;5.97;2.80;;;11.80;75.50;;;;;;5039412;28;20047;-64
2024/03/02 11:26:53;;;;;;;7.43;3.38;;;11.60;74.20;;;;;;5028940;28;20378;-64
2024/03/02 11:29:40;;;;;;;5.35;2.65;;;11.50;74.50;;;;;;5034554;28;20040;-64
2024/03/02 11:32:23;;;;;;;6.07;3.05;;;11.60;74.70;;;;;;5032428;28;20109;-64
2024/03/02 11:34:50;;;;;;;6.30;2.80;;;11.60;74.90;;;;;;5031196;28;20032;-62
2024/03/02 11:37:17;;;;;;;5.90;2.60;;;11.80;74.80;;;;;;5044594;28;20053;-63
2024/03/02 11:39:44;;;;;;;5.75;3.08;;;11.50;73.20;;;;;;5043796;28;20464;-63
2024/03/02 11:42:14;;;;;;;7.53;3.13;;;11.80;74.20;;;;;;5036085;28;20053;-64
2024/03/02 11:44:42;;;;;;;6.25;3.00;;;11.90;73.80;;;;;;5044024;28;20064;-63
2024/03/02 11:47:10;;;;;;;6.45;2.47;;;11.70;73.80;;;;;;5032710;28;20450;-63
2024/03/02 11:49:37;;;;;;;6.00;2.60;;;11.90;74.50;;;;;;5035116;28;20033;-63
2024/03/02 11:52:06;;;;;;;4.10;2.33;;;12.00;73.20;;;;;;5034494;28;20126;-62
2024/03/02 11:54:34;;;;;;;4.47;2.00;;;12.00;73.30;;;;;;5033777;28;20076;-63
2024/03/02 11:57:02;;;;;;;5.03;2.22;;;12.10;73.00;;;;;;5038353;28;20033;-64
2024/03/02 11:59:29;;;;;;;5.47;2.42;;;12.00;72.60;;;;;;5036892;28;20429;-63
2024/03/02 12:01:55;;;;;;;6.40;2.83;;;12.00;73.00;;;;;;5032757;28;20087;-63
2024/03/02 12:04:22;;;;;;;6.07;2.72;;;11.90;73.80;;;;;;5034572;28;20072;-63
2024/03/02 12:06:54;;;;;;;7.82;3.30;;;12.00;74.00;;;;;;5027766;28;20041;-65
2024/03/02 12:09:20;;;;;;;6.38;2.67;;;11.90;73.90;;;;;;5037942;28;20120;-64
2024/03/02 12:11:46;;;;;;;7.05;2.67;;;11.80;74.50;;;;;;5033693;28;20390;-63
2024/03/02 12:14:15;;;;;;;7.25;2.60;;;11.80;75.10;;;;;;5036819;28;20056;-63
2024/03/02 12:16:44;;;;;;;7.47;3.38;;;11.70;74.60;;;;;;5039885;28;20112;-63
2024/03/02 12:19:10;;;;;;;8.20;3.67;;;11.70;74.30;;;;;;5035543;28;20154;-63
2024/03/02 12:21:35;;;;;;;7.07;3.00;;;11.70;74.90;;;;;;5030871;28;20113;-63
2024/03/02 12:24:02;;;;;;;7.13;3.20;;;11.60;75.10;;;;;;5035273;28;20077;-62
2024/03/02 12:26:28;;;;;;;6.90;2.92;;;11.70;74.80;;;;;;5034408;28;20041;-63
2024/03/02 12:28:54;;;;;;;6.70;3.05;;;11.70;74.60;;;;;;5037823;28;20048;-63
2024/03/02 12:31:20;;;;;;;5.70;2.75;;;11.80;75.40;;;;;;5031961;28;20418;-63
2024/03/02 12:33:46;;;;;;;5.07;2.47;;;12.00;74.90;;;;;;5031237;28;20087;-63
2024/03/02 12:36:13;;;;;;;5.10;2.65;;;12.20;74.20;;;;;;5024458;28;20033;-63
2024/03/02 12:38:43;;;;;;;6.00;2.83;;;12.30;74.00;;;;;;5034395;28;20113;-64
2024/03/02 12:41:09;;;;;;;6.63;3.20;;;12.30;73.50;;;;;;5036344;28;20044;-62
2024/03/02 12:43:34;;;;;;;5.45;2.85;;;12.40;72.70;;;;;;5035543;28;20036;-62
2024/03/02 12:46:00;;;;;;;6.82;3.05;;;12.50;72.50;;;;;;5031991;28;20041;-62
2024/03/02 12:48:26;;;;;;;5.72;2.75;;;12.60;73.20;;;;;;5034722;28;20163;-62
2024/03/02 12:50:52;;;;;;;6.72;2.58;;;12.60;72.10;;;;;;5031545;28;20182;-62
2024/03/02 12:53:17;;;;;;;5.38;2.50;;;12.70;72.30;;;;;;5028458;28;20029;-64
2024/03/02 12:55:46;;;;;;;5.13;2.33;;;13.00;72.20;;;;;;5033435;28;20094;-64